Time;durP1;ratioP1;P1;durP2;ratioP2;P2;SDS_P1;SDS_P2;PMS_P1;PMS_P2;Temp;Humidity;BMP_temperature;BMP_pressure;BME280_temperature;BME280_humidity;BME280_pressure;Samples;Min_cycle;Max_cycle;Signal;HPM_P1;HPM_P2
2021/12/19 00:00:28;;;;;;;;;;;0.80;97.50;;;;;;5055198;28;19978;-65
2021/12/19 00:11:13;;;;;;;;;;;0.80;97.50;;;;;;5014299;28;19975;-65
2021/12/19 00:13:40;;;;;;;;;;;0.80;97.60;;;;;;5047410;28;19940;-65
2021/12/19 00:16:06;;;;;;;;;;;0.90;97.50;;;;;;5056271;28;19962;-65
2021/12/19 00:18:32;;;;;;;;;;;0.90;97.60;;;;;;5056199;28;20383;-65
2021/12/19 00:20:57;;;;;;;;;;;0.80;97.50;;;;;;5055936;28;19964;-65
2021/12/19 00:23:23;;;;;;;;;;;0.70;97.50;;;;;;5056112;28;19954;-65
2021/12/19 00:25:48;;;;;;;;;;;0.70;97.50;;;;;;5054685;28;20357;-65
2021/12/19 00:28:14;;;;;;;;;;;0.70;97.50;;;;;;5056231;28;19996;-65
2021/12/19 00:30:39;;;;;;;;;;;0.70;97.60;;;;;;5055973;28;20333;-65
2021/12/19 00:33:05;;;;;;;;;;;0.60;97.60;;;;;;5056051;28;20449;-65
2021/12/19 00:35:31;;;;;;;;;;;0.60;97.60;;;;;;5055764;28;20397;-65
2021/12/19 00:37:56;;;;;;;;;;;0.50;97.60;;;;;;5055826;28;20461;-65
2021/12/19 00:40:22;;;;;;;;;;;0.50;97.50;;;;;;5055723;28;19960;-65
2021/12/19 00:43:01;;;;;;;;;;;0.50;97.50;;;;;;5055685;28;20402;-65
2021/12/19 00:45:30;;;;;;;;;;;0.50;97.60;;;;;;5055656;28;20026;-65
2021/12/19 00:47:57;;;;;;;;;;;0.50;97.60;;;;;;5055690;28;19948;-65
2021/12/19 00:50:23;;;;;;;;;;;0.40;97.60;;;;;;5055567;28;20002;-65
2021/12/19 00:52:49;;;;;;;;;;;0.30;97.60;;;;;;5055520;28;19936;-65
2021/12/19 00:55:15;;;;;;;;;;;0.30;97.60;;;;;;5055465;28;20384;-65
2021/12/19 00:57:40;;;;;;;;;;;0.30;97.60;;;;;;5055444;28;19947;-65
2021/12/19 01:00:08;;;;;;;;;;;0.30;97.50;;;;;;5055399;28;19964;-65
2021/12/19 01:02:34;;;;;;;;;;;0.40;97.50;;;;;;5055021;28;19940;-65
2021/12/19 01:05:00;;;;;;;;;;;0.50;97.60;;;;;;5054970;28;20418;-65
2021/12/19 01:07:25;;;;;;;;;;;0.50;97.60;;;;;;5055336;28;20437;-65
2021/12/19 01:09:51;;;;;;;;;;;0.50;97.60;;;;;;5054965;28;20427;-65
2021/12/19 01:12:16;;;;;;;;;;;0.50;97.60;;;;;;5054929;28;19975;-65
2021/12/19 01:14:42;;;;;;;;;;;0.50;97.50;;;;;;5055080;28;20027;-65
2021/12/19 01:17:08;;;;;;;;;;;0.50;97.60;;;;;;5055053;28;20387;-65
2021/12/19 01:19:34;;;;;;;;;;;0.50;97.60;;;;;;5054928;28;20065;-65
2021/12/19 01:22:00;;;;;;;;;;;0.50;97.60;;;;;;5054963;28;19984;-65
2021/12/19 01:24:25;;;;;;;;;;;0.40;97.50;;;;;;5054947;28;20055;-65
2021/12/19 01:26:51;;;;;;;;;;;0.40;97.60;;;;;;5054747;28;19940;-65
2021/12/19 01:29:16;;;;;;;;;;;0.30;97.50;;;;;;5053462;28;19946;-65
2021/12/19 01:31:42;;;;;;;;;;;0.30;97.50;;;;;;5054951;28;19946;-65
2021/12/19 01:34:12;;;;;;;;;;;0.30;97.50;;;;;;5054765;28;19944;-65
2021/12/19 01:36:39;;;;;;;;;;;0.30;97.50;;;;;;5053486;28;19955;-65
2021/12/19 01:39:04;;;;;;;;;;;0.30;97.50;;;;;;5054637;28;19943;-65
2021/12/19 01:41:30;;;;;;;;;;;0.30;97.50;;;;;;5054614;28;19942;-65
2021/12/19 01:43:55;;;;;;;;;;;0.30;97.50;;;;;;5054622;28;20043;-65
2021/12/19 01:46:21;;;;;;;;;;;0.30;97.50;;;;;;5054405;28;20028;-65
2021/12/19 01:48:46;;;;;;;;;;;0.30;97.50;;;;;;5054355;28;19940;-65
2021/12/19 01:51:12;;;;;;;;;;;0.30;97.60;;;;;;5054305;28;19985;-65
2021/12/19 01:53:37;;;;;;;;;;;0.30;97.60;;;;;;5054408;28;19997;-65
2021/12/19 01:56:05;;;;;;;;;;;0.30;97.60;;;;;;5054261;28;19952;-65
2021/12/19 01:58:31;;;;;;;;;;;0.30;97.60;;;;;;5054212;28;19936;-65
2021/12/19 02:00:57;;;;;;;;;;;0.30;97.60;;;;;;5054076;28;19956;-65
2021/12/19 02:03:23;;;;;;;;;;;0.30;97.60;;;;;;5052925;28;20052;-65
2021/12/19 02:05:49;;;;;;;;;;;0.40;97.60;;;;;;5054273;28;19938;-65
2021/12/19 02:08:14;;;;;;;;;;;0.40;97.60;;;;;;5054157;28;19949;-65
2021/12/19 02:10:41;;;;;;;;;;;0.30;97.60;;;;;;5054243;28;19942;-66
2021/12/19 02:13:07;;;;;;;;;;;0.40;97.60;;;;;;5052764;28;19947;-65
2021/12/19 02:15:33;;;;;;;;;;;0.40;97.60;;;;;;5053939;28;20380;-65
2021/12/19 02:18:00;;;;;;;;;;;0.40;97.60;;;;;;5054185;28;20042;-65
2021/12/19 02:20:31;;;;;;;;;;;0.40;97.60;;;;;;5053897;28;19964;-65
2021/12/19 02:22:57;;;;;;;;;;;0.40;97.60;;;;;;5053849;28;19948;-65
2021/12/19 02:25:22;;;;;;;;;;;0.40;97.60;;;;;;5053812;28;19950;-65
2021/12/19 02:27:48;;;;;;;;;;;0.30;97.60;;;;;;5052401;28;19942;-65
2021/12/19 02:30:14;;;;;;;;;;;0.30;97.60;;;;;;5052618;28;19993;-65
2021/12/19 02:32:41;;;;;;;;;;;0.30;97.60;;;;;;5053778;28;19939;-65
2021/12/19 02:35:10;;;;;;;;;;;0.30;97.60;;;;;;5053764;28;19944;-65
2021/12/19 02:40:27;;;;;;;;;;;0.30;97.60;;;;;;5053888;28;19958;-65
2021/12/19 02:48:21;;;;;;;;;;;0.50;97.60;;;;;;5053851;28;19951;-65
2021/12/19 02:50:50;;;;;;;;;;;0.40;97.60;;;;;;5053601;28;19943;-65
2021/12/19 02:53:19;;;;;;;;;;;0.40;97.50;;;;;;5052590;28;19973;-65
2021/12/19 02:55:45;;;;;;;;;;;0.40;97.60;;;;;;5053624;28;19993;-65
2021/12/19 02:58:11;;;;;;;;;;;0.50;97.60;;;;;;5053589;28;20315;-65
2021/12/19 03:00:37;;;;;;;;;;;0.60;97.50;;;;;;5053514;28;19965;-65
2021/12/19 03:03:03;;;;;;;;;;;0.50;97.60;;;;;;5052206;28;20037;-65
2021/12/19 03:05:31;;;;;;;;;;;0.50;97.50;;;;;;5053454;28;19988;-65
2021/12/19 03:07:57;;;;;;;;;;;0.40;97.50;;;;;;5053508;28;20394;-65
2021/12/19 03:13:10;;;;;;;;;;;0.30;97.50;;;;;;5053383;28;20030;-65
2021/12/19 03:18:24;;;;;;;;;;;0.40;97.50;;;;;;5053309;28;20004;-65
2021/12/19 03:20:49;;;;;;;;;;;0.40;97.50;;;;;;5053251;28;20373;-65
2021/12/19 03:23:16;;;;;;;;;;;0.40;97.50;;;;;;5053279;28;19954;-65
2021/12/19 03:25:41;;;;;;;;;;;0.50;97.50;;;;;;5053309;28;19936;-65
2021/12/19 03:28:08;;;;;;;;;;;0.50;97.40;;;;;;5056763;28;19954;-65
2021/12/19 03:30:34;;;;;;;;;;;0.50;97.40;;;;;;5057328;28;19943;-65
2021/12/19 03:32:59;;;;;;;;;;;0.60;97.50;;;;;;5055907;28;20036;-65
2021/12/19 03:35:25;;;;;;;;;;;0.60;97.50;;;;;;5057186;28;19943;-66
2021/12/19 03:37:52;;;;;;;;;;;0.70;97.50;;;;;;5057064;28;20487;-65
2021/12/19 03:40:23;;;;;;;;;;;0.70;97.50;;;;;;5055585;28;19987;-65
2021/12/19 03:42:50;;;;;;;;;;;0.70;97.50;;;;;;5056916;28;19936;-65
2021/12/19 03:45:18;;;;;;;;;;;0.70;97.50;;;;;;5057030;28;19941;-65
2021/12/19 03:47:44;;;;;;;;;;;0.50;97.40;;;;;;5055591;28;20380;-65
2021/12/19 03:50:11;;;;;;;;;;;0.50;97.40;;;;;;5056922;28;19941;-65
2021/12/19 03:52:37;;;;;;;;;;;0.50;97.40;;;;;;5056846;28;19943;-65
2021/12/19 03:55:03;;;;;;;;;;;0.50;97.40;;;;;;5056844;28;19945;-65
2021/12/19 03:57:28;;;;;;;;;;;0.50;97.30;;;;;;5056724;28;20002;-65
2021/12/19 03:59:54;;;;;;;;;;;0.50;97.40;;;;;;5056748;28;19964;-65
2021/12/19 04:02:26;;;;;;;;;;;0.50;97.30;;;;;;5056571;28;19976;-65
2021/12/19 04:04:52;;;;;;;;;;;0.50;97.30;;;;;;5056557;28;19947;-65
2021/12/19 04:07:18;;;;;;;;;;;0.50;97.30;;;;;;5056693;28;20001;-65
2021/12/19 04:09:43;;;;;;;;;;;0.50;97.30;;;;;;5055060;28;20331;-65
2021/12/19 04:12:09;;;;;;;;;;;0.50;97.20;;;;;;5056236;28;20404;-65
2021/12/19 04:14:35;;;;;;;;;;;0.50;97.20;;;;;;5056415;28;20058;-65
2021/12/19 04:17:00;;;;;;;;;;;0.60;97.20;;;;;;5056348;28;19999;-65
2021/12/19 04:19:27;;;;;;;;;;;0.50;97.10;;;;;;5056202;28;20058;-65
2021/12/19 04:21:53;;;;;;;;;;;0.50;97.10;;;;;;5056340;28;19937;-65
2021/12/19 04:24:18;;;;;;;;;;;0.60;97.10;;;;;;5056468;28;20330;-65
2021/12/19 04:26:44;;;;;;;;;;;0.60;97.10;;;;;;5054734;28;20462;-65
2021/12/19 04:29:10;;;;;;;;;;;0.60;97.20;;;;;;5056022;28;20467;-65
2021/12/19 04:31:36;;;;;;;;;;;0.60;97.20;;;;;;5056073;28;20374;-65
2021/12/19 04:34:01;;;;;;;;;;;0.70;97.10;;;;;;5056040;28;19944;-65
2021/12/19 04:36:32;;;;;;;;;;;0.70;97.10;;;;;;5055979;28;19948;-65
2021/12/19 04:52:32;;;;;;;;;;;0.30;97.10;;;;;;5055601;28;20039;-65
2021/12/19 04:55:19;;;;;;;;;;;0.20;97.10;;;;;;5055487;28;19940;-65
2021/12/19 04:57:49;;;;;;;;;;;0.30;97.10;;;;;;5055329;28;19971;-65
2021/12/19 05:00:19;;;;;;;;;;;0.20;97.10;;;;;;5054087;28;20012;-65
2021/12/19 05:02:59;;;;;;;;;;;0.30;97.20;;;;;;5055502;28;19941;-65
2021/12/19 05:16:13;;;;;;;;;;;0.40;97.20;;;;;;5055562;28;20318;-65
2021/12/19 05:18:40;;;;;;;;;;;0.40;97.20;;;;;;5055108;28;19951;-65
2021/12/19 05:21:16;;;;;;;;;;;0.40;97.20;;;;;;5055058;28;19968;-65
2021/12/19 05:26:10;;;;;;;;;;;0.40;97.20;;;;;;5055035;28;19952;-65
2021/12/19 05:28:35;;;;;;;;;;;0.50;97.20;;;;;;5054887;28;19938;-65
2021/12/19 05:31:01;;;;;;;;;;;0.40;97.20;;;;;;5054946;28;20393;-65
2021/12/19 05:33:26;;;;;;;;;;;0.40;97.20;;;;;;5054887;28;19943;-65
2021/12/19 05:46:36;;;;;;;;;;;0.50;97.20;;;;;;5054912;28;19945;-65
2021/12/19 05:49:04;;;;;;;;;;;0.50;97.10;;;;;;5054077;28;19938;-65
2021/12/19 05:51:29;;;;;;;;;;;0.50;97.10;;;;;;5054493;28;19942;-65
2021/12/19 05:53:55;;;;;;;;;;;0.40;97.10;;;;;;5054529;28;20303;-65
2021/12/19 05:56:21;;;;;;;;;;;0.40;97.10;;;;;;5054395;28;19937;-65
2021/12/19 05:58:46;;;;;;;;;;;0.40;97.00;;;;;;5054249;28;20316;-65
2021/12/19 06:01:12;;;;;;;;;;;0.20;97.00;;;;;;5054011;28;20010;-65
2021/12/19 06:03:38;;;;;;;;;;;0.20;96.90;;;;;;5054165;28;19950;-65
2021/12/19 06:06:03;;;;;;;;;;;0.10;96.90;;;;;;5054187;28;20310;-65
2021/12/19 06:08:29;;;;;;;;;;;0.10;96.90;;;;;;5054018;28;19993;-65
2021/12/19 06:10:54;;;;;;;;;;;0.20;96.90;;;;;;5053883;28;20501;-65
2021/12/19 06:13:20;;;;;;;;;;;0.10;96.90;;;;;;5053949;28;19944;-65
2021/12/19 06:15:49;;;;;;;;;;;0.20;96.90;;;;;;5054019;28;20468;-65
2021/12/19 06:18:15;;;;;;;;;;;0.10;96.90;;;;;;5053899;28;19937;-65
2021/12/19 06:20:40;;;;;;;;;;;0.10;96.90;;;;;;5053769;28;19967;-65
2021/12/19 06:23:08;;;;;;;;;;;0.10;96.90;;;;;;5053941;28;20042;-65
2021/12/19 06:25:33;;;;;;;;;;;0.20;96.90;;;;;;5053780;28;20419;-65
2021/12/19 06:27:59;;;;;;;;;;;0.20;96.90;;;;;;5053759;28;19944;-65
2021/12/19 06:30:25;;;;;;;;;;;0.20;96.90;;;;;;5053719;28;19946;-65
2021/12/19 06:32:50;;;;;;;;;;;0.20;96.80;;;;;;5053706;28;20354;-65
2021/12/19 06:35:21;;;;;;;;;;;0.20;96.80;;;;;;5053696;28;19963;-65
2021/12/19 06:37:47;;;;;;;;;;;0.20;96.80;;;;;;5053672;28;19947;-65
2021/12/19 06:40:14;;;;;;;;;;;0.20;96.80;;;;;;5053703;28;19962;-65
2021/12/19 06:42:39;;;;;;;;;;;0.30;96.80;;;;;;5052438;28;20032;-65
2021/12/19 06:45:05;;;;;;;;;;;0.20;96.80;;;;;;5053601;28;20002;-65
2021/12/19 06:47:31;;;;;;;;;;;0.20;96.80;;;;;;5053556;28;19943;-65
2021/12/19 06:49:56;;;;;;;;;;;0.10;96.80;;;;;;5053618;28;20439;-65
2021/12/19 06:52:22;;;;;;;;;;;0.00;96.70;;;;;;5053601;28;19937;-65
2021/12/19 06:54:47;;;;;;;;;;;0.00;96.70;;;;;;5053495;28;19987;-65
2021/12/19 06:57:13;;;;;;;;;;;0.00;96.80;;;;;;5052237;28;19950;-66
2021/12/19 06:59:39;;;;;;;;;;;0.00;96.80;;;;;;5052084;28;19979;-66
2021/12/19 07:02:04;;;;;;;;;;;0.10;96.90;;;;;;5054059;28;19952;-65
2021/12/19 07:04:30;;;;;;;;;;;0.20;97.00;;;;;;5057502;28;19948;-65
2021/12/19 07:06:55;;;;;;;;;;;0.20;96.90;;;;;;5057510;28;19950;-65
2021/12/19 07:09:21;;;;;;;;;;;0.30;96.90;;;;;;5057408;28;19959;-65
2021/12/19 07:11:47;;;;;;;;;;;0.30;96.90;;;;;;5057318;28;20381;-65
2021/12/19 07:14:12;;;;;;;;;;;0.30;96.90;;;;;;5057442;28;19990;-65
2021/12/19 07:16:38;;;;;;;;;;;0.30;96.90;;;;;;5057408;28;20033;-65
2021/12/19 07:19:04;;;;;;;;;;;0.30;96.90;;;;;;5057962;28;19947;-65
2021/12/19 07:21:29;;;;;;;;;;;0.20;96.80;;;;;;5057267;28;20330;-65
2021/12/19 07:23:56;;;;;;;;;;;0.20;96.90;;;;;;5057226;28;19941;-65
2021/12/19 07:26:22;;;;;;;;;;;0.20;96.80;;;;;;5057067;28;19944;-65
2021/12/19 07:28:49;;;;;;;;;;;0.20;96.80;;;;;;5057132;28;20008;-65
2021/12/19 07:31:19;;;;;;;;;;;0.30;96.80;;;;;;5055896;28;19945;-65
2021/12/19 07:33:45;;;;;;;;;;;0.40;96.90;;;;;;5057078;28;19947;-65
2021/12/19 07:36:12;;;;;;;;;;;0.40;96.90;;;;;;5057069;28;19942;-66
2021/12/19 07:38:50;;;;;;;;;;;0.30;96.80;;;;;;5057189;28;19948;-65
2021/12/19 07:41:15;;;;;;;;;;;0.00;96.60;;;;;;5056689;28;19978;-65
2021/12/19 07:43:41;;;;;;;;;;;0.00;96.50;;;;;;5056797;28;19937;-65
2021/12/19 07:46:06;;;;;;;;;;;0.00;96.50;;;;;;5056803;28;20392;-65
2021/12/19 07:48:32;;;;;;;;;;;0.00;96.60;;;;;;5056759;28;20401;-65
2021/12/19 07:50:57;;;;;;;;;;;0.00;96.70;;;;;;5056692;28;19997;-65
2021/12/19 07:53:24;;;;;;;;;;;0.10;96.80;;;;;;5056509;28;19949;-65
2021/12/19 07:55:50;;;;;;;;;;;0.20;96.80;;;;;;5056690;28;20401;-65
2021/12/19 07:58:15;;;;;;;;;;;0.20;96.80;;;;;;5056618;28;20031;-65
2021/12/19 08:00:41;;;;;;;;;;;0.30;96.80;;;;;;5056476;28;20003;-65
2021/12/19 08:03:06;;;;;;;;;;;0.20;96.80;;;;;;5056496;28;19937;-65
2021/12/19 08:05:32;;;;;;;;;;;0.00;96.70;;;;;;5056516;28;19944;-65
2021/12/19 08:08:01;;;;;;;;;;;0.00;96.60;;;;;;5056285;28;19947;-65
2021/12/19 08:12:59;;;;;;;;;;;-3276.70;96.70;;;;;;5055934;28;19953;-65
2021/12/19 08:15:25;;;;;;;;;;;-3276.70;96.70;;;;;;5055111;28;19949;-65
2021/12/19 08:17:51;;;;;;;;;;;-3276.70;96.70;;;;;;5056230;28;20424;-65
2021/12/19 08:20:17;;;;;;;;;;;0.00;96.80;;;;;;5056137;28;19965;-65
2021/12/19 08:22:47;;;;;;;;;;;0.10;96.90;;;;;;5055969;28;19950;-65
2021/12/19 08:25:13;;;;;;;;;;;0.20;96.90;;;;;;5054763;28;20321;-65
2021/12/19 08:27:39;;;;;;;;;;;0.20;96.90;;;;;;5056001;28;19938;-65
2021/12/19 08:30:06;;;;;;;;;;;0.30;96.90;;;;;;5054623;28;19947;-65
2021/12/19 08:32:31;;;;;;;;;;;0.30;96.90;;;;;;5055738;28;19945;-65
2021/12/19 08:34:57;;;;;;;;;;;0.30;96.80;;;;;;5055892;28;19946;-65
2021/12/19 08:37:22;;;;;;;;;;;0.30;96.80;;;;;;5055990;28;19945;-65
2021/12/19 08:39:48;;;;;;;;;;;0.40;96.80;;;;;;5054453;28;19979;-65
2021/12/19 08:42:14;;;;;;;;;;;0.40;96.80;;;;;;5055804;28;20313;-65
2021/12/19 08:44:39;;;;;;;;;;;0.50;96.80;;;;;;5054486;28;20457;-65
2021/12/19 08:47:05;;;;;;;;;;;0.50;96.70;;;;;;5055749;28;19948;-65
2021/12/19 08:49:31;;;;;;;;;;;0.40;96.60;;;;;;5055632;28;19942;-65
2021/12/19 08:51:56;;;;;;;;;;;0.40;96.60;;;;;;5055666;28;19953;-65
2021/12/19 08:54:22;;;;;;;;;;;0.30;96.50;;;;;;5055580;28;20048;-65
2021/12/19 08:56:51;;;;;;;;;;;0.30;96.50;;;;;;5055497;28;19948;-65
2021/12/19 08:59:16;;;;;;;;;;;0.20;96.40;;;;;;5055245;28;20038;-65
2021/12/19 09:01:42;;;;;;;;;;;0.30;96.50;;;;;;5055406;28;20031;-65
2021/12/19 09:04:07;;;;;;;;;;;0.40;96.60;;;;;;5055353;28;19946;-65
2021/12/19 09:06:33;;;;;;;;;;;0.40;96.60;;;;;;5053966;28;19941;-65
2021/12/19 09:08:59;;;;;;;;;;;0.40;96.60;;;;;;5055044;28;20035;-65
2021/12/19 09:11:24;;;;;;;;;;;0.40;96.50;;;;;;5054520;28;19975;-65
2021/12/19 09:13:50;;;;;;;;;;;0.40;96.60;;;;;;5054951;28;19997;-65
2021/12/19 09:16:16;;;;;;;;;;;0.40;96.50;;;;;;5055049;28;20039;-65
2021/12/19 09:18:41;;;;;;;;;;;0.30;96.60;;;;;;5055040;28;19997;-65
2021/12/19 09:21:07;;;;;;;;;;;0.40;96.60;;;;;;5055010;28;19961;-65
2021/12/19 09:23:33;;;;;;;;;;;0.30;96.60;;;;;;5054631;28;19976;-65
2021/12/19 09:25:59;;;;;;;;;;;0.50;96.70;;;;;;5054376;28;20028;-65
2021/12/19 09:28:25;;;;;;;;;;;0.50;96.80;;;;;;5054819;28;19984;-65
2021/12/19 09:30:51;;;;;;;;;;;0.50;96.70;;;;;;5054779;28;19944;-65
2021/12/19 09:33:16;;;;;;;;;;;0.70;96.80;;;;;;5054682;28;19941;-65
2021/12/19 09:35:42;;;;;;;;;;;0.70;96.80;;;;;;5054517;28;20426;-65
2021/12/19 09:38:08;;;;;;;;;;;0.70;96.80;;;;;;5054605;28;19938;-65
2021/12/19 09:40:37;;;;;;;;;;;0.80;96.80;;;;;;5054491;28;19964;-65
2021/12/19 09:43:09;;;;;;;;;;;1.00;96.90;;;;;;5054415;28;20025;-65
2021/12/19 09:45:34;;;;;;;;;;;1.00;96.80;;;;;;5054302;28;19944;-65
2021/12/19 09:48:00;;;;;;;;;;;0.90;96.70;;;;;;5054317;28;19936;-65
2021/12/19 09:50:26;;;;;;;;;;;0.70;96.50;;;;;;5054266;28;20429;-65
2021/12/19 09:52:52;;;;;;;;;;;0.70;96.50;;;;;;5054165;28;19943;-65
2021/12/19 09:55:21;;;;;;;;;;;0.70;96.50;;;;;;5054193;28;20381;-65
2021/12/19 09:57:48;;;;;;;;;;;0.60;96.50;;;;;;5054144;28;19967;-65
2021/12/19 10:00:14;;;;;;;;;;;0.60;96.50;;;;;;5054007;28;20322;-65
2021/12/19 10:02:39;;;;;;;;;;;0.60;96.50;;;;;;5054009;28;20008;-65
2021/12/19 10:05:15;;;;;;;;;;;0.60;96.60;;;;;;5052642;28;20420;-65
2021/12/19 10:08:00;;;;;;;;;;;0.70;96.70;;;;;;5053885;28;19948;-65
2021/12/19 10:10:46;;;;;;;;;;;0.90;96.80;;;;;;5052628;28;19969;-66
2021/12/19 10:13:12;;;;;;;;;;;0.90;96.80;;;;;;5054152;28;19954;-65
2021/12/19 10:15:39;;;;;;;;;;;1.00;96.80;;;;;;5053891;28;20360;-65
2021/12/19 10:18:12;;;;;;;;;;;1.10;96.80;;;;;;5053793;28;19995;-65
2021/12/19 10:20:40;;;;;;;;;;;1.10;96.80;;;;;;5053645;28;20016;-65
2021/12/19 10:23:25;;;;;;;;;;;1.10;96.70;;;;;;5053891;28;19993;-65
2021/12/19 10:26:17;;;;;;;;;;;1.20;96.70;;;;;;5052462;28;20041;-65
2021/12/19 10:28:48;;;;;;;;;;;1.10;96.60;;;;;;5049609;28;19996;-65
2021/12/19 10:31:14;;;;;;;;;;;1.10;96.50;;;;;;5053606;28;20053;-65
2021/12/19 10:33:39;;;;;;;;;;;1.20;96.60;;;;;;5053669;28;19975;-65
2021/12/19 10:36:06;;;;;;;;;;;1.20;96.50;;;;;;5052169;28;19944;-65
2021/12/19 10:38:33;;;;;;;;;;;1.20;96.50;;;;;;5053626;28;19947;-65
2021/12/19 10:41:06;;;;;;;;;;;1.30;96.60;;;;;;5053368;28;19967;-65
2021/12/19 10:43:32;;;;;;;;;;;1.30;96.50;;;;;;5053469;28;20014;-65
2021/12/19 10:45:59;;;;;;;;;;;1.40;96.50;;;;;;5053473;28;20401;-65
2021/12/19 10:48:32;;;;;;;;;;;1.50;96.60;;;;;;5053512;28;19941;-65
2021/12/19 10:51:17;;;;;;;;;;;1.60;96.60;;;;;;5053454;28;20195;-65
2021/12/19 10:53:55;;;;;;;;;;;1.60;96.60;;;;;;5053443;28;19945;-65
2021/12/19 10:56:31;;;;;;;;;;;1.70;96.60;;;;;;5053656;28;19954;-65
2021/12/19 10:58:58;;;;;;;;;;;1.70;96.50;;;;;;5053355;28;19936;-65
2021/12/19 11:01:31;;;;;;;;;;;1.70;96.40;;;;;;5051962;28;19968;-65
2021/12/19 11:03:59;;;;;;;;;;;1.80;96.40;;;;;;5053383;28;19944;-65
2021/12/19 11:06:27;;;;;;;;;;;1.80;96.20;;;;;;5053287;28;19967;-65
2021/12/19 11:08:53;;;;;;;;;;;1.80;96.20;;;;;;5053143;28;19957;-65
2021/12/19 11:11:30;;;;;;;;;;;1.70;95.90;;;;;;5053138;28;20380;-65
2021/12/19 11:13:56;;;;;;;;;;;1.60;95.80;;;;;;5053157;28;20091;-65
2021/12/19 11:16:21;;;;;;;;;;;1.70;96.00;;;;;;5053082;28;20415;-65
2021/12/19 11:18:48;;;;;;;;;;;1.80;96.20;;;;;;5053091;28;19944;-65
2021/12/19 11:21:14;;;;;;;;;;;2.00;96.30;;;;;;5052888;28;20060;-65
2021/12/19 11:23:39;;;;;;;;;;;2.00;96.20;;;;;;5053075;28;19945;-65
2021/12/19 11:26:05;;;;;;;;;;;2.00;96.10;;;;;;5051588;28;19950;-65
2021/12/19 11:28:31;;;;;;;;;;;2.00;96.00;;;;;;5051569;28;19950;-65
2021/12/19 11:30:57;;;;;;;;;;;1.90;96.00;;;;;;5051659;28;19954;-65
2021/12/19 11:33:25;;;;;;;;;;;1.90;95.90;;;;;;5052872;28;19981;-65
2021/12/19 11:35:54;;;;;;;;;;;1.90;95.80;;;;;;5051401;28;19946;-65
2021/12/19 11:38:21;;;;;;;;;;;1.80;95.80;;;;;;5052879;28;19952;-65
2021/12/19 11:40:47;;;;;;;;;;;1.90;96.00;;;;;;5052804;28;20010;-65
2021/12/19 11:43:13;;;;;;;;;;;1.90;96.10;;;;;;5052938;28;19986;-65
2021/12/19 11:45:47;;;;;;;;;;;1.90;96.10;;;;;;5052942;28;20056;-65
2021/12/19 11:48:22;;;;;;;;;;;1.90;96.10;;;;;;5054791;28;20419;-64
2021/12/19 11:50:48;;;;;;;;;;;1.90;96.00;;;;;;5056704;28;19945;-65
2021/12/19 11:53:16;;;;;;;;;;;1.90;96.10;;;;;;5055276;28;20005;-65
2021/12/19 11:55:43;;;;;;;;;;;2.00;96.10;;;;;;5055319;28;19951;-65
2021/12/19 11:58:09;;;;;;;;;;;2.00;96.20;;;;;;5056487;28;19946;-65
2021/12/19 12:00:34;;;;;;;;;;;2.10;96.20;;;;;;5056345;28;20422;-65
2021/12/19 12:03:12;;;;;;;;;;;2.00;96.00;;;;;;5056360;28;20527;-65
2021/12/19 12:05:58;;;;;;;;;;;2.10;96.10;;;;;;5056353;28;19944;-65
2021/12/19 12:08:25;;;;;;;;;;;2.10;96.00;;;;;;5042094;28;20049;-65
2021/12/19 12:10:58;;;;;;;;;;;2.10;96.00;;;;;;5056049;28;20492;-65
2021/12/19 12:13:26;;;;;;;;;;;2.10;96.20;;;;;;5056373;28;19952;-65
2021/12/19 12:15:59;;;;;;;;;;;2.10;96.30;;;;;;5056231;28;19935;-65
2021/12/19 12:18:28;;;;;;;;;;;2.20;96.40;;;;;;5056101;28;19943;-64
2021/12/19 12:20:54;;;;;;;;;;;2.30;96.40;;;;;;5056020;28;20431;-65
2021/12/19 12:23:24;;;;;;;;;;;2.30;96.30;;;;;;5056815;28;19942;-64
2021/12/19 12:25:50;;;;;;;;;;;2.40;96.30;;;;;;5055964;28;20404;-65
2021/12/19 12:28:18;;;;;;;;;;;2.40;96.30;;;;;;5056062;28;20040;-65
2021/12/19 12:30:48;;;;;;;;;;;2.40;96.20;;;;;;5055906;28;20390;-65
2021/12/19 12:33:21;;;;;;;;;;;2.50;96.10;;;;;;5056007;28;20316;-65
2021/12/19 12:35:48;;;;;;;;;;;2.50;96.20;;;;;;5056026;28;19944;-64
2021/12/19 12:38:14;;;;;;;;;;;2.70;96.20;;;;;;5055880;28;19949;-65
2021/12/19 12:40:49;;;;;;;;;;;2.70;96.10;;;;;;5055888;28;19956;-65
2021/12/19 12:43:16;;;;;;;;;;;2.60;95.70;;;;;;5055846;28;19967;-65
2021/12/19 12:45:54;;;;;;;;;;;2.50;95.70;;;;;;5055793;28;20007;-65
2021/12/19 12:48:30;;;;;;;;;;;2.50;95.70;;;;;;5055622;28;19945;-64
2021/12/19 12:50:55;;;;;;;;;;;2.40;95.90;;;;;;5055742;28;19986;-65
2021/12/19 12:53:52;;;;;;;;;;;2.40;96.00;;;;;;5055636;28;19944;-65
2021/12/19 12:56:21;;;;;;;;;;;2.40;96.10;;;;;;5039468;28;20410;-65
2021/12/19 12:58:48;;;;;;;;;;;2.40;96.20;;;;;;5054732;28;19943;-65
2021/12/19 13:01:27;;;;;;;;;;;2.50;96.30;;;;;;5055401;28;19965;-65
2021/12/19 13:03:54;;;;;;;;;;;2.60;96.40;;;;;;5055541;28;19954;-65
2021/12/19 13:06:38;;;;;;;;;;;2.60;96.30;;;;;;5055460;28;19941;-65
2021/12/19 13:09:18;;;;;;;;;;;2.70;96.30;;;;;;5055442;28;19989;-65
2021/12/19 13:11:45;;;;;;;;;;;2.70;96.20;;;;;;5062280;23;20466;-65
2021/12/19 13:14:14;;;;;;;;;;;2.60;96.10;;;;;;5055241;28;19950;-65
2021/12/19 13:16:59;;;;;;;;;;;2.60;96.10;;;;;;5053861;28;19950;-65
2021/12/19 13:19:36;;;;;;;;;;;2.70;96.10;;;;;;5055014;28;19951;-65
2021/12/19 13:22:02;;;;;;;;;;;2.70;96.20;;;;;;5055203;28;20459;-64
2021/12/19 13:24:32;;;;;;;;;;;2.70;96.00;;;;;;5054450;28;20531;-64
2021/12/19 13:27:02;;;;;;;;;;;2.70;96.00;;;;;;5054691;28;19953;-65
2021/12/19 13:29:29;;;;;;;;;;;2.70;96.00;;;;;;5054946;28;19945;-65
2021/12/19 13:31:55;;;;;;;;;;;2.70;95.90;;;;;;5053514;28;19947;-64
2021/12/19 13:34:20;;;;;;;;;;;2.60;95.70;;;;;;5054707;28;20040;-64
2021/12/19 13:37:01;;;;;;;;;;;2.60;95.70;;;;;;5053396;28;20402;-64
2021/12/19 13:39:26;;;;;;;;;;;2.60;95.70;;;;;;5053346;28;19949;-64
2021/12/19 13:41:52;;;;;;;;;;;2.60;95.70;;;;;;5053378;28;20040;-64
2021/12/19 13:44:30;;;;;;;;;;;2.50;95.70;;;;;;5054537;28;20398;-64
2021/12/19 13:46:55;;;;;;;;;;;2.60;95.70;;;;;;5054655;28;19969;-64
2021/12/19 13:49:21;;;;;;;;;;;2.50;95.70;;;;;;5054522;28;19944;-64
2021/12/19 13:51:47;;;;;;;;;;;2.50;95.60;;;;;;5054535;28;20287;-64
2021/12/19 13:54:12;;;;;;;;;;;2.50;95.70;;;;;;5054256;28;20310;-64
2021/12/19 13:56:38;;;;;;;;;;;2.50;95.70;;;;;;5054295;28;20032;-64
2021/12/19 13:59:05;;;;;;;;;;;2.50;95.70;;;;;;5054191;28;20100;-64
2021/12/19 14:01:34;;;;;;;;;;;2.40;95.60;;;;;;5054054;28;19999;-64
2021/12/19 14:04:01;;;;;;;;;;;2.30;95.50;;;;;;5054039;28;20402;-64
2021/12/19 14:06:31;;;;;;;;;;;2.20;95.60;;;;;;5054138;28;20021;-64
2021/12/19 14:09:04;;;;;;;;;;;2.30;95.70;;;;;;5054113;28;19957;-64
2021/12/19 14:11:30;;;;;;;;;;;2.30;95.80;;;;;;5053622;28;19972;-65
2021/12/19 14:14:02;;;;;;;;;;;2.20;95.70;;;;;;5053945;28;20054;-65
2021/12/19 14:16:36;;;;;;;;;;;2.20;95.60;;;;;;5054043;28;19943;-64
2021/12/19 14:19:14;;;;;;;;;;;2.10;95.70;;;;;;5053879;28;19938;-65
2021/12/19 14:21:40;;;;;;;;;;;2.20;95.80;;;;;;5053704;28;20026;-64
2021/12/19 14:24:09;;;;;;;;;;;2.00;95.70;;;;;;5053858;28;20388;-65
2021/12/19 14:26:36;;;;;;;;;;;2.00;95.70;;;;;;5053734;28;20000;-64
2021/12/19 14:29:01;;;;;;;;;;;1.90;95.80;;;;;;5053718;28;19976;-64
2021/12/19 14:31:44;;;;;;;;;;;1.80;95.80;;;;;;5053709;28;19945;-64
2021/12/19 14:34:20;;;;;;;;;;;1.80;95.90;;;;;;5053681;28;19937;-64
2021/12/19 14:36:46;;;;;;;;;;;1.70;96.00;;;;;;5052380;28;19946;-64
2021/12/19 14:39:15;;;;;;;;;;;1.70;96.20;;;;;;5053634;28;19936;-65
2021/12/19 14:41:41;;;;;;;;;;;1.70;96.20;;;;;;5053401;28;20055;-64
2021/12/19 14:44:17;;;;;;;;;;;1.70;96.30;;;;;;5053338;28;19943;-64
2021/12/19 14:46:42;;;;;;;;;;;1.70;96.40;;;;;;5052060;28;19942;-64
2021/12/19 14:49:10;;;;;;;;;;;1.70;96.50;;;;;;5053390;28;20081;-64
2021/12/19 14:51:36;;;;;;;;;;;1.70;96.50;;;;;;5053371;28;19970;-64
2021/12/19 14:54:02;;;;;;;;;;;1.60;96.40;;;;;;5053311;28;19993;-64
2021/12/19 14:56:29;;;;;;;;;;;1.50;96.40;;;;;;5053398;28;20031;-64
2021/12/19 14:58:59;;;;;;;;;;;1.50;96.40;;;;;;5052079;28;19949;-64
2021/12/19 15:01:46;;;;;;;;;;;1.50;96.50;;;;;;5051903;28;20404;-65
2021/12/19 15:04:14;;;;;;;;;;;1.50;96.50;;;;;;5053659;28;19973;-64
2021/12/19 15:06:44;;;;;;;;;;;1.60;96.60;;;;;;5053267;28;20019;-64
2021/12/19 15:09:13;;;;;;;;;;;1.60;96.60;;;;;;5051840;28;19958;-64
2021/12/19 15:11:39;;;;;;;;;;;1.50;96.50;;;;;;5053088;28;19985;-64
2021/12/19 15:14:05;;;;;;;;;;;1.50;96.50;;;;;;5053182;28;19962;-64
2021/12/19 15:16:32;;;;;;;;;;;1.50;96.50;;;;;;5051938;28;19980;-64
2021/12/19 15:18:59;;;;;;;;;;;1.50;96.50;;;;;;5053146;28;20008;-64
2021/12/19 15:21:26;;;;;;;;;;;1.40;96.40;;;;;;5053100;28;20001;-64
2021/12/19 15:23:53;;;;;;;;;;;1.30;96.40;;;;;;5056227;28;19959;-64
2021/12/19 15:26:18;;;;;;;;;;;1.30;96.50;;;;;;5056946;28;20032;-64
2021/12/19 15:28:46;;;;;;;;;;;1.30;96.60;;;;;;5056936;28;19975;-64
2021/12/19 15:31:13;;;;;;;;;;;1.40;96.70;;;;;;5057021;28;19944;-64
2021/12/19 15:33:39;;;;;;;;;;;1.40;96.70;;;;;;5056935;28;19937;-64